Valle Verde 1, Puerto Rico
Current Conditions -  °F | °C
As of 11:56 AM on Thursday 23 Oct 2014 (Local Time) from TJSJ Reporting Station
Scattered Clouds Scattered Clouds  
Wind Chill: 32°   Ceiling: Unl
Heat Index: 38°   Visibility: 10mi
Dew Point: 24°   Wind: 15mph
Humidity: 65%   Direction: 50°NE
Pressure: 29.92"   Gusts: NA
Location:  18.1808°N, 66.1122°W
Report Text: TJSJ 231556Z 05013KT 10SM FEW040 SCT060 32/24 A2992 RMK AO2 SLP130 T03170244
Loading
Personal Weather Stations






























Interactive Weather Map
Tropical Storm Tracking
New forecast layout! Learn more

10-Day Weather Forecast

Advertisements
Track Severe Weather on mobile